createdAt,value
2019-03-17T00:00:05.301Z,966.16
2019-03-17T00:01:05.291Z,966.16
2019-03-17T00:02:05.278Z,966.15
2019-03-17T00:03:05.268Z,966.16
2019-03-17T00:04:05.258Z,966.16
2019-03-17T00:05:05.248Z,966.14
2019-03-17T00:06:07.747Z,966.13
2019-03-17T00:07:05.222Z,966.09
2019-03-17T00:08:05.212Z,966.17
2019-03-17T00:09:05.202Z,966.09
2019-03-17T00:10:05.264Z,966.11
2019-03-17T00:11:05.178Z,966.08
2019-03-17T00:12:05.169Z,966.04
2019-03-17T00:13:05.157Z,966.04
2019-03-17T00:14:05.162Z,966.04
2019-03-17T00:15:06.417Z,966.07
2019-03-17T00:16:05.125Z,966.01
2019-03-17T00:17:05.111Z,965.97
2019-03-17T00:18:05.101Z,966.00
2019-03-17T00:19:05.089Z,965.97
2019-03-17T00:20:05.079Z,965.99
2019-03-17T00:21:05.068Z,966.00
2019-03-17T00:22:05.056Z,965.92
2019-03-17T00:23:05.044Z,965.92
2019-03-17T00:24:05.034Z,965.94
2019-03-17T00:25:09.650Z,965.92
2019-03-17T00:26:05.011Z,965.90
2019-03-17T00:27:05.000Z,965.90
2019-03-17T00:28:04.991Z,965.87
2019-03-17T00:29:04.979Z,965.85
2019-03-17T00:30:04.967Z,965.83
2019-03-17T00:31:04.955Z,965.84
2019-03-17T00:32:04.944Z,965.84
2019-03-17T00:33:04.938Z,965.82
2019-03-17T00:34:04.930Z,965.78
2019-03-17T00:35:04.909Z,965.84
2019-03-17T00:36:04.901Z,965.80
2019-03-17T00:37:04.892Z,965.76
2019-03-17T00:38:04.875Z,965.82
2019-03-17T00:39:04.865Z,965.79
2019-03-17T00:40:04.853Z,965.77
2019-03-17T00:41:04.881Z,965.79
2019-03-17T00:42:04.833Z,965.81
2019-03-17T00:43:04.822Z,965.76
2019-03-17T00:44:04.811Z,965.75
2019-03-17T00:45:04.796Z,965.77
2019-03-17T00:46:04.786Z,965.80
2019-03-17T00:47:04.774Z,965.78
2019-03-17T00:48:04.765Z,965.79
2019-03-17T00:49:04.752Z,965.76
2019-03-17T00:50:04.739Z,965.73
2019-03-17T00:51:04.729Z,965.73
2019-03-17T00:52:04.717Z,965.69
2019-03-17T00:53:04.706Z,965.72
2019-03-17T00:54:04.697Z,965.70
2019-03-17T00:55:04.683Z,965.71
2019-03-17T00:56:04.675Z,965.70
2019-03-17T00:57:04.677Z,965.65
2019-03-17T00:58:04.649Z,965.69
2019-03-17T00:59:04.641Z,965.61
2019-03-17T01:00:04.627Z,965.67
2019-03-17T01:01:04.614Z,965.65
2019-03-17T01:02:04.664Z,965.68
2019-03-17T01:03:04.592Z,965.64
2019-03-17T01:04:04.582Z,965.68
2019-03-17T01:05:04.569Z,965.65
2019-03-17T01:06:04.558Z,965.57
2019-03-17T01:07:04.545Z,965.58
2019-03-17T01:08:04.536Z,965.61
2019-03-17T01:09:04.525Z,965.51
2019-03-17T01:10:04.511Z,965.47
2019-03-17T01:11:04.502Z,965.49
2019-03-17T01:12:04.489Z,965.50
2019-03-17T01:13:04.484Z,965.46
2019-03-17T01:14:04.467Z,965.46
2019-03-17T01:15:04.534Z,965.45
2019-03-17T01:16:04.443Z,965.41
2019-03-17T01:17:04.433Z,965.41
2019-03-17T01:18:04.420Z,965.41
2019-03-17T01:19:04.408Z,965.34
2019-03-17T01:20:04.400Z,965.33
2019-03-17T01:21:04.386Z,965.35
2019-03-17T01:22:04.375Z,965.31
2019-03-17T01:23:04.363Z,965.28
2019-03-17T01:24:04.352Z,965.28
2019-03-17T01:25:04.345Z,965.26
2019-03-17T01:26:04.331Z,965.26
2019-03-17T01:27:04.321Z,965.22
2019-03-17T01:28:04.305Z,965.21
2019-03-17T01:29:04.293Z,965.24
2019-03-17T01:30:04.281Z,965.22
2019-03-17T01:31:04.272Z,965.17
2019-03-17T01:32:04.257Z,965.19
2019-03-17T01:33:04.248Z,965.24
2019-03-17T01:34:04.234Z,965.18
2019-03-17T01:35:09.320Z,965.12
2019-03-17T01:36:04.212Z,965.14
2019-03-17T01:37:04.203Z,965.16
2019-03-17T01:38:04.192Z,965.14
2019-03-17T01:39:04.177Z,965.07
2019-03-17T01:40:04.165Z,965.06
2019-03-17T01:41:04.154Z,965.13
2019-03-17T01:42:04.141Z,965.10
2019-03-17T01:43:04.128Z,965.09
2019-03-17T01:44:04.118Z,965.05
2019-03-17T01:45:04.107Z,965.02
2019-03-17T01:46:04.093Z,965.01
2019-03-17T01:47:04.082Z,964.98
2019-03-17T01:48:04.071Z,964.96
2019-03-17T01:49:04.061Z,965.00
2019-03-17T01:50:04.046Z,964.97
2019-03-17T01:51:04.035Z,965.01
2019-03-17T01:52:04.023Z,964.94
2019-03-17T01:53:04.012Z,964.94
2019-03-17T01:54:04.001Z,964.91
2019-03-17T01:55:03.988Z,964.91
2019-03-17T01:56:03.977Z,964.89
2019-03-17T01:57:03.965Z,964.87
2019-03-17T01:58:03.953Z,964.83
2019-03-17T01:59:03.941Z,964.78
2019-03-17T02:00:03.930Z,964.75
2019-03-17T02:01:03.919Z,964.74
2019-03-17T02:02:03.913Z,964.74
2019-03-17T02:03:03.898Z,964.73
2019-03-17T02:04:03.884Z,964.66
2019-03-17T02:05:03.871Z,964.65
2019-03-17T02:06:03.858Z,964.67
2019-03-17T02:07:03.848Z,964.64
2019-03-17T02:08:03.835Z,964.64
2019-03-17T02:09:03.827Z,964.64
2019-03-17T02:10:03.812Z,964.62
2019-03-17T02:11:03.803Z,964.58
2019-03-17T02:12:03.791Z,964.60
2019-03-17T02:13:03.783Z,964.56
2019-03-17T02:14:03.770Z,964.51
2019-03-17T02:15:03.753Z,964.46
2019-03-17T02:16:03.741Z,964.45
2019-03-17T02:17:03.729Z,964.48
2019-03-17T02:18:03.715Z,964.44
2019-03-17T02:19:03.781Z,964.44
2019-03-17T02:20:03.694Z,964.47
2019-03-17T02:21:03.682Z,964.46
2019-03-17T02:22:03.670Z,964.41
2019-03-17T02:23:03.657Z,964.40
2019-03-17T02:24:03.655Z,964.34
2019-03-17T02:25:03.635Z,964.33
2019-03-17T02:26:03.622Z,964.28
2019-03-17T02:27:03.611Z,964.29
2019-03-17T02:28:03.599Z,964.33
2019-03-17T02:29:03.593Z,964.31
2019-03-17T02:30:03.576Z,964.24
2019-03-17T02:31:03.604Z,964.26
2019-03-17T02:32:03.562Z,964.24
2019-03-17T02:33:03.567Z,964.21
2019-03-17T02:34:03.610Z,964.24
2019-03-17T02:35:03.521Z,964.29
2019-03-17T02:36:03.514Z,964.24
2019-03-17T02:37:03.492Z,964.25
2019-03-17T02:38:03.487Z,964.27
2019-03-17T02:39:03.469Z,964.25
2019-03-17T02:40:03.455Z,964.25
2019-03-17T02:41:03.449Z,964.27
2019-03-17T02:42:03.433Z,964.29
2019-03-17T02:43:03.429Z,964.26
2019-03-17T02:44:03.409Z,964.22
2019-03-17T02:45:03.398Z,964.21
2019-03-17T02:46:03.383Z,964.22
2019-03-17T02:47:03.392Z,964.26
2019-03-17T02:48:03.364Z,964.18
2019-03-17T02:49:03.360Z,964.22
2019-03-17T02:50:03.337Z,964.16
2019-03-17T02:51:03.332Z,964.15
2019-03-17T02:52:03.325Z,964.18
2019-03-17T02:53:03.299Z,964.17
2019-03-17T02:54:03.302Z,964.15
2019-03-17T02:55:03.289Z,964.12
2019-03-17T02:56:03.265Z,964.11
2019-03-17T02:57:03.299Z,964.12
2019-03-17T02:58:03.241Z,964.13
2019-03-17T02:59:03.232Z,964.06
2019-03-17T03:00:03.217Z,964.10
2019-03-17T03:01:03.206Z,964.12
2019-03-17T03:02:03.200Z,964.10
2019-03-17T03:03:03.189Z,964.10
2019-03-17T03:04:03.169Z,964.09
2019-03-17T03:05:03.163Z,964.05
2019-03-17T03:06:03.202Z,964.03
2019-03-17T03:07:03.170Z,964.05
2019-03-17T03:08:03.131Z,964.07
2019-03-17T03:09:03.114Z,964.07
2019-03-17T03:10:03.096Z,964.03
2019-03-17T03:11:03.088Z,964.06
2019-03-17T03:12:03.076Z,964.03
2019-03-17T03:13:03.067Z,963.97
2019-03-17T03:14:03.061Z,963.99
2019-03-17T03:15:03.037Z,964.01
2019-03-17T03:16:05.601Z,964.02
2019-03-17T03:17:03.010Z,964.04
2019-03-17T03:18:03.005Z,964.08
2019-03-17T03:19:03.020Z,964.08
2019-03-17T03:20:02.977Z,964.12
2019-03-17T03:21:02.968Z,964.10
2019-03-17T03:22:02.951Z,964.09
2019-03-17T03:23:02.957Z,964.13
2019-03-17T03:24:02.928Z,964.14
2019-03-17T03:25:02.947Z,964.16
2019-03-17T03:26:02.901Z,964.14
2019-03-17T03:27:02.892Z,964.15
2019-03-17T03:28:02.892Z,964.13
2019-03-17T03:29:02.866Z,964.05
2019-03-17T03:30:02.854Z,964.07
2019-03-17T03:31:02.843Z,964.04
2019-03-17T03:32:02.835Z,964.05
2019-03-17T03:33:02.823Z,964.00
2019-03-17T03:34:02.826Z,964.05
2019-03-17T03:35:02.831Z,964.04
2019-03-17T03:36:11.068Z,963.95
2019-03-17T03:37:02.771Z,964.00
2019-03-17T03:38:02.758Z,963.99
2019-03-17T03:39:02.745Z,963.98
2019-03-17T03:40:02.748Z,963.99
2019-03-17T03:41:02.722Z,963.96
2019-03-17T03:42:02.707Z,964.00
2019-03-17T03:43:02.716Z,964.05
2019-03-17T03:44:02.687Z,964.01
2019-03-17T03:45:02.672Z,963.98
2019-03-17T03:46:02.661Z,963.94
2019-03-17T03:47:02.648Z,963.92
2019-03-17T03:48:02.649Z,963.95
2019-03-17T03:49:02.627Z,963.93
2019-03-17T03:50:02.627Z,963.95
2019-03-17T03:51:02.600Z,963.98
2019-03-17T03:52:02.589Z,964.00
2019-03-17T03:53:02.578Z,963.99
2019-03-17T03:54:02.563Z,964.01
2019-03-17T03:55:02.555Z,964.03
2019-03-17T03:56:02.546Z,964.05
2019-03-17T03:57:02.606Z,964.02
2019-03-17T03:58:02.515Z,964.00
2019-03-17T03:59:02.502Z,963.98
2019-03-17T04:00:02.490Z,963.99
2019-03-17T04:01:02.478Z,963.92
2019-03-17T04:02:02.465Z,963.95
2019-03-17T04:03:02.460Z,963.88
2019-03-17T04:04:02.442Z,963.95
2019-03-17T04:05:02.429Z,963.97
2019-03-17T04:06:02.414Z,963.96
2019-03-17T04:07:02.442Z,963.93
2019-03-17T04:08:02.392Z,963.84
2019-03-17T04:09:02.381Z,963.88
2019-03-17T04:10:02.368Z,963.86
2019-03-17T04:11:02.354Z,963.82
2019-03-17T04:12:02.342Z,963.81
2019-03-17T04:13:02.334Z,963.84
2019-03-17T04:14:02.320Z,963.88
2019-03-17T04:15:02.307Z,963.88
2019-03-17T04:16:02.304Z,963.89
2019-03-17T04:17:02.282Z,963.91
2019-03-17T04:18:02.272Z,963.88
2019-03-17T04:19:02.258Z,963.87
2019-03-17T04:20:02.246Z,963.88
2019-03-17T04:21:02.233Z,963.85
2019-03-17T04:22:02.222Z,963.78
2019-03-17T04:23:02.213Z,963.75
2019-03-17T04:24:02.199Z,963.69
2019-03-17T04:25:02.212Z,963.68
2019-03-17T04:26:02.171Z,963.59
2019-03-17T04:27:02.178Z,963.52
2019-03-17T04:28:02.149Z,963.59
2019-03-17T04:29:02.137Z,963.66
2019-03-17T04:30:02.133Z,963.71
2019-03-17T04:31:02.112Z,963.75
2019-03-17T04:32:02.101Z,963.71
2019-03-17T04:33:02.091Z,963.72
2019-03-17T04:34:02.075Z,963.72
2019-03-17T04:35:02.345Z,963.73
2019-03-17T04:36:02.051Z,963.75
2019-03-17T04:37:02.039Z,963.81
2019-03-17T04:38:02.034Z,963.82
2019-03-17T04:39:02.018Z,963.83
2019-03-17T04:40:02.001Z,963.86
2019-03-17T04:41:01.989Z,963.78
2019-03-17T04:42:01.976Z,963.84
2019-03-17T04:43:01.963Z,963.83
2019-03-17T04:44:01.952Z,963.83
2019-03-17T04:45:01.942Z,963.87
2019-03-17T04:46:01.930Z,963.79
2019-03-17T04:47:01.914Z,963.80
2019-03-17T04:48:01.903Z,963.81
2019-03-17T04:49:01.960Z,963.83
2019-03-17T04:50:01.894Z,963.78
2019-03-17T04:51:01.865Z,963.81
2019-03-17T04:52:01.854Z,963.76
2019-03-17T04:53:01.841Z,963.73
2019-03-17T04:54:01.829Z,963.68
2019-03-17T04:55:01.817Z,963.67
2019-03-17T04:56:01.803Z,963.72
2019-03-17T04:57:01.799Z,963.69
2019-03-17T04:58:01.779Z,963.73
2019-03-17T04:59:01.816Z,963.75
2019-03-17T05:00:01.756Z,963.72
2019-03-17T05:01:01.741Z,963.73
2019-03-17T05:02:01.733Z,963.71
2019-03-17T05:03:01.716Z,963.70
2019-03-17T05:04:01.703Z,963.70
2019-03-17T05:05:01.693Z,963.73
2019-03-17T05:06:01.681Z,963.72
2019-03-17T05:07:01.667Z,963.72
2019-03-17T05:08:01.658Z,963.68
2019-03-17T05:09:01.645Z,963.70
2019-03-17T05:10:01.634Z,963.73
2019-03-17T05:11:01.619Z,963.68
2019-03-17T05:12:01.607Z,963.67
2019-03-17T05:13:01.595Z,963.63
2019-03-17T05:14:01.580Z,963.69
2019-03-17T05:15:01.577Z,963.69
2019-03-17T05:16:01.556Z,963.76
2019-03-17T05:17:01.549Z,963.69
2019-03-17T05:18:01.532Z,963.72
2019-03-17T05:19:01.521Z,963.73
2019-03-17T05:20:01.508Z,963.72
2019-03-17T05:21:01.498Z,963.74
2019-03-17T05:22:01.484Z,963.73
2019-03-17T05:23:01.475Z,963.73
2019-03-17T05:24:01.460Z,963.78
2019-03-17T05:25:01.447Z,963.77
2019-03-17T05:26:01.433Z,963.78
2019-03-17T05:27:01.421Z,963.79
2019-03-17T05:28:01.408Z,963.77
2019-03-17T05:29:01.396Z,963.71
2019-03-17T05:30:01.389Z,963.73
2019-03-17T05:31:01.375Z,963.70
2019-03-17T05:32:01.359Z,963.73
2019-03-17T05:33:01.347Z,963.76
2019-03-17T05:34:01.334Z,963.75
2019-03-17T05:35:01.321Z,963.75
2019-03-17T05:36:01.309Z,963.73
2019-03-17T05:37:06.603Z,963.73
2019-03-17T05:38:01.285Z,963.76
2019-03-17T05:39:01.277Z,963.79
2019-03-17T05:40:01.260Z,963.83
2019-03-17T05:41:01.250Z,963.84
2019-03-17T05:42:01.235Z,963.89
2019-03-17T05:43:01.223Z,963.85
2019-03-17T05:44:01.211Z,963.91
2019-03-17T05:45:01.200Z,963.91
2019-03-17T05:46:01.188Z,963.89
2019-03-17T05:47:01.175Z,963.88
2019-03-17T05:48:01.162Z,963.86
2019-03-17T05:49:01.150Z,963.85
2019-03-17T05:50:01.138Z,963.85
2019-03-17T05:51:01.125Z,963.88
2019-03-17T05:52:01.113Z,963.88
2019-03-17T05:53:01.104Z,963.88
2019-03-17T05:54:01.087Z,963.90
2019-03-17T05:55:01.076Z,963.93
2019-03-17T05:56:01.063Z,963.94
2019-03-17T05:57:01.052Z,963.92
2019-03-17T05:58:01.041Z,963.92
2019-03-17T05:59:01.028Z,963.89
2019-03-17T06:00:01.019Z,963.93
2019-03-17T06:01:01.004Z,963.87
2019-03-17T06:02:00.992Z,963.88
2019-03-17T06:03:00.979Z,963.88
2019-03-17T06:04:00.965Z,963.85
2019-03-17T06:05:00.978Z,963.86
2019-03-17T06:06:00.943Z,963.83
2019-03-17T06:07:00.931Z,963.86
2019-03-17T06:08:00.919Z,963.83
2019-03-17T06:09:00.909Z,963.82
2019-03-17T06:10:00.895Z,963.88
2019-03-17T06:11:00.881Z,963.86
2019-03-17T06:12:00.873Z,963.92
2019-03-17T06:13:00.859Z,963.91
2019-03-17T06:14:00.844Z,963.84
2019-03-17T06:15:00.833Z,963.76
2019-03-17T06:16:00.822Z,963.72
2019-03-17T06:17:00.809Z,963.81
2019-03-17T06:18:00.796Z,963.76
2019-03-17T06:19:00.786Z,963.78
2019-03-17T06:20:00.779Z,963.73
2019-03-17T06:21:00.759Z,963.75
2019-03-17T06:22:00.766Z,963.77
2019-03-17T06:23:00.735Z,963.64
2019-03-17T06:24:00.727Z,963.74
2019-03-17T06:25:00.711Z,963.78
2019-03-17T06:26:00.702Z,963.75
2019-03-17T06:27:00.687Z,963.74
2019-03-17T06:28:00.675Z,963.85
2019-03-17T06:29:00.666Z,963.67
2019-03-17T06:30:00.652Z,963.61
2019-03-17T06:31:00.640Z,963.62
2019-03-17T06:32:00.629Z,963.77
2019-03-17T06:33:00.620Z,963.71
2019-03-17T06:34:00.605Z,963.67
2019-03-17T06:35:00.603Z,963.67
2019-03-17T06:36:00.580Z,963.77
2019-03-17T06:37:00.570Z,963.77
2019-03-17T06:38:00.579Z,963.69
2019-03-17T06:39:00.544Z,963.73
2019-03-17T06:40:00.533Z,963.71
2019-03-17T06:41:00.520Z,963.64
2019-03-17T06:42:00.508Z,963.79
2019-03-17T06:43:00.495Z,963.79
2019-03-17T06:44:00.483Z,963.81
2019-03-17T06:45:00.472Z,963.85
2019-03-17T06:46:00.459Z,963.92
2019-03-17T06:47:00.446Z,963.87
2019-03-17T06:48:00.437Z,963.94
2019-03-17T06:49:00.423Z,963.82
2019-03-17T06:50:00.511Z,963.86
2019-03-17T06:51:00.399Z,963.89
2019-03-17T06:52:00.389Z,963.84
2019-03-17T06:53:00.379Z,963.87
2019-03-17T06:54:00.364Z,963.82
2019-03-17T06:55:00.375Z,963.80
2019-03-17T06:56:00.341Z,963.84
2019-03-17T06:57:00.329Z,963.80
2019-03-17T06:58:00.315Z,963.83
2019-03-17T06:59:00.311Z,963.81
2019-03-17T07:00:00.417Z,963.81
2019-03-17T07:01:00.285Z,963.79
2019-03-17T07:02:00.271Z,963.78
2019-03-17T07:03:00.260Z,963.76
2019-03-17T07:04:00.246Z,963.76
2019-03-17T07:05:00.404Z,963.81
2019-03-17T07:06:00.224Z,963.79
2019-03-17T07:07:00.213Z,963.81
2019-03-17T07:08:00.201Z,963.76
2019-03-17T07:09:00.203Z,963.81
2019-03-17T07:10:00.420Z,963.83
2019-03-17T07:11:00.169Z,963.80
2019-03-17T07:12:00.166Z,963.88
2019-03-17T07:13:00.145Z,963.87
2019-03-17T07:14:00.136Z,963.93
2019-03-17T07:15:00.360Z,963.89
2019-03-17T07:16:00.114Z,963.90
2019-03-17T07:17:00.109Z,963.83
2019-03-17T07:18:00.091Z,963.88
2019-03-17T07:19:00.081Z,963.87
2019-03-17T07:20:00.250Z,963.82
2019-03-17T07:21:00.058Z,963.78
2019-03-17T07:22:00.047Z,963.77
2019-03-17T07:23:00.038Z,963.84
2019-03-17T07:24:00.026Z,963.91
2019-03-17T07:25:00.021Z,963.91
2019-03-17T07:26:00.004Z,963.89
2019-03-17T07:26:59.995Z,963.90
2019-03-17T07:27:59.990Z,963.84
2019-03-17T07:28:59.976Z,963.84
2019-03-17T07:29:59.963Z,963.86
2019-03-17T07:30:59.953Z,963.84
2019-03-17T07:31:59.944Z,963.88
2019-03-17T07:32:59.934Z,963.87
2019-03-17T07:33:59.942Z,963.88
2019-03-17T07:34:59.914Z,963.91
2019-03-17T07:35:59.902Z,963.86
2019-03-17T07:36:59.892Z,963.83
2019-03-17T07:37:59.880Z,963.87
2019-03-17T07:39:11.173Z,963.87
2019-03-17T07:39:59.862Z,963.89
2019-03-17T07:40:59.875Z,963.91
2019-03-17T07:41:59.842Z,963.96
2019-03-17T07:42:59.830Z,963.88
2019-03-17T07:43:59.821Z,963.91
2019-03-17T07:44:59.811Z,963.88
2019-03-17T07:45:59.800Z,963.91
2019-03-17T07:46:59.791Z,963.86
2019-03-17T07:47:59.786Z,963.83
2019-03-17T07:48:59.774Z,963.85
2019-03-17T07:49:59.762Z,963.76
2019-03-17T07:50:59.751Z,963.92
2019-03-17T07:51:59.741Z,963.90
2019-03-17T07:52:59.732Z,963.85
2019-03-17T07:53:59.727Z,963.84
2019-03-17T07:54:59.712Z,963.82
2019-03-17T07:55:59.703Z,963.88
2019-03-17T07:56:59.693Z,963.97
2019-03-17T07:57:59.683Z,963.99
2019-03-17T07:58:59.674Z,963.92
2019-03-17T07:59:59.664Z,963.87
2019-03-17T08:01:01.167Z,963.88
2019-03-17T08:01:59.645Z,963.99
2019-03-17T08:02:59.636Z,963.98
2019-03-17T08:03:59.627Z,963.91
2019-03-17T08:04:59.615Z,963.85
2019-03-17T08:05:59.608Z,963.91
2019-03-17T08:06:59.599Z,963.94
2019-03-17T08:08:08.877Z,963.92
2019-03-17T08:08:59.579Z,963.73
2019-03-17T08:09:59.571Z,963.85
2019-03-17T08:10:59.560Z,963.80
2019-03-17T08:11:59.550Z,963.73
2019-03-17T08:12:59.544Z,963.84
2019-03-17T08:13:59.531Z,963.92
2019-03-17T08:14:59.545Z,963.87
2019-03-17T08:15:59.514Z,963.80
2019-03-17T08:16:59.503Z,963.90
2019-03-17T08:17:59.493Z,963.88
2019-03-17T08:18:59.485Z,963.86
2019-03-17T08:19:59.475Z,963.91
2019-03-17T08:20:59.466Z,963.82
2019-03-17T08:21:59.456Z,963.81
2019-03-17T08:22:59.446Z,963.78
2019-03-17T08:23:59.440Z,963.82
2019-03-17T08:24:59.428Z,963.75
2019-03-17T08:25:59.428Z,963.73
2019-03-17T08:26:59.410Z,963.79
2019-03-17T08:27:59.401Z,963.79
2019-03-17T08:28:59.392Z,963.79
2019-03-17T08:29:59.382Z,963.76
2019-03-17T08:30:59.389Z,963.78
2019-03-17T08:31:59.363Z,963.77
2019-03-17T08:32:59.357Z,963.75
2019-03-17T08:33:59.352Z,963.68
2019-03-17T08:34:59.338Z,963.69
2019-03-17T08:35:59.327Z,963.66
2019-03-17T08:36:59.321Z,963.65
2019-03-17T08:37:59.308Z,963.66
2019-03-17T08:38:59.299Z,963.69
2019-03-17T08:39:59.290Z,963.64
2019-03-17T08:40:59.281Z,963.68
2019-03-17T08:41:59.272Z,963.68
2019-03-17T08:42:59.263Z,963.70
2019-03-17T08:43:59.254Z,963.68
2019-03-17T08:44:59.246Z,963.71
2019-03-17T08:45:59.239Z,963.67
2019-03-17T08:46:59.230Z,963.64
2019-03-17T08:47:59.220Z,963.71
2019-03-17T08:48:59.210Z,963.75
2019-03-17T08:49:59.202Z,963.69
2019-03-17T08:50:59.193Z,963.66
2019-03-17T08:51:59.184Z,963.70
2019-03-17T08:52:59.201Z,963.73
2019-03-17T08:53:59.166Z,963.66
2019-03-17T08:54:59.158Z,963.69
2019-03-17T08:55:59.155Z,963.68
2019-03-17T08:56:59.144Z,963.68
2019-03-17T08:57:59.132Z,963.65
2019-03-17T08:58:59.123Z,963.74
2019-03-17T08:59:59.125Z,963.72
2019-03-17T09:00:59.107Z,963.72
2019-03-17T09:01:59.098Z,963.71
2019-03-17T09:02:59.088Z,963.62
2019-03-17T09:03:59.081Z,963.65
2019-03-17T09:04:59.071Z,963.65
2019-03-17T09:05:59.142Z,963.72
2019-03-17T09:06:59.054Z,963.75
2019-03-17T09:07:59.048Z,963.68
2019-03-17T09:08:59.037Z,963.63
2019-03-17T09:09:59.033Z,963.70
2019-03-17T09:10:59.019Z,963.72
2019-03-17T09:11:59.011Z,963.55
2019-03-17T09:12:59.003Z,963.57
2019-03-17T09:13:58.993Z,963.73
2019-03-17T09:14:58.986Z,963.60
2019-03-17T09:15:58.976Z,963.51
2019-03-17T09:16:58.968Z,963.58
2019-03-17T09:17:58.963Z,963.61
2019-03-17T09:18:58.958Z,963.65
2019-03-17T09:19:58.946Z,963.55
2019-03-17T09:20:58.935Z,963.55
2019-03-17T09:21:58.992Z,963.55
2019-03-17T09:22:58.917Z,963.53
2019-03-17T09:23:58.910Z,963.47
2019-03-17T09:24:58.902Z,963.40
2019-03-17T09:25:58.895Z,963.31
2019-03-17T09:26:58.884Z,963.36
2019-03-17T09:27:58.876Z,963.35
2019-03-17T09:28:58.868Z,963.32
2019-03-17T09:29:58.861Z,963.39
2019-03-17T09:30:58.854Z,963.45
2019-03-17T09:31:58.849Z,963.34
2019-03-17T09:32:58.838Z,963.27
2019-03-17T09:33:58.829Z,963.30
2019-03-17T09:34:58.820Z,963.35
2019-03-17T09:35:58.813Z,963.33
2019-03-17T09:36:58.806Z,963.25
2019-03-17T09:37:58.796Z,963.26
2019-03-17T09:38:58.788Z,963.24
2019-03-17T09:39:58.783Z,963.21
2019-03-17T09:40:58.777Z,963.22
2019-03-17T09:41:58.766Z,963.23
2019-03-17T09:42:58.758Z,963.31
2019-03-17T09:43:58.750Z,963.32
2019-03-17T09:44:58.745Z,963.24
2019-03-17T09:45:58.736Z,963.14
2019-03-17T09:46:58.731Z,963.23
2019-03-17T09:47:58.722Z,963.30
2019-03-17T09:48:58.717Z,963.36
2019-03-17T09:49:58.704Z,963.29
2019-03-17T09:50:58.696Z,963.28
2019-03-17T09:51:58.692Z,963.28
2019-03-17T09:52:58.684Z,963.39
2019-03-17T09:53:58.675Z,963.47
2019-03-17T09:54:58.670Z,963.50
2019-03-17T09:55:58.660Z,963.46
2019-03-17T09:56:58.652Z,963.48
2019-03-17T09:57:58.646Z,963.50
2019-03-17T09:58:58.637Z,963.49
2019-03-17T09:59:58.631Z,963.40
2019-03-17T10:00:58.628Z,963.35
2019-03-17T10:01:58.615Z,963.44
2019-03-17T10:02:58.607Z,963.49
2019-03-17T10:03:58.601Z,963.47
2019-03-17T10:04:58.594Z,963.43
2019-03-17T10:05:58.590Z,963.46
2019-03-17T10:06:58.577Z,963.46
2019-03-17T10:07:58.637Z,963.40
2019-03-17T10:09:00.142Z,963.48
2019-03-17T10:09:58.557Z,963.46
2019-03-17T10:10:58.551Z,963.30
2019-03-17T10:11:58.542Z,963.29
2019-03-17T10:12:58.535Z,963.39
2019-03-17T10:13:58.527Z,963.44
2019-03-17T10:14:58.524Z,963.37
2019-03-17T10:15:58.518Z,963.38
2019-03-17T10:16:58.507Z,963.40
2019-03-17T10:17:58.499Z,963.44
2019-03-17T10:18:58.492Z,963.40
2019-03-17T10:19:58.486Z,963.43
2019-03-17T10:20:58.479Z,963.42
2019-03-17T10:21:58.473Z,963.48
2019-03-17T10:22:58.467Z,963.54
2019-03-17T10:23:58.460Z,963.50
2019-03-17T10:24:58.451Z,963.50
2019-03-17T10:25:58.445Z,963.50
2019-03-17T10:26:58.445Z,963.50
2019-03-17T10:27:58.430Z,963.48
2019-03-17T10:28:58.427Z,963.44
2019-03-17T10:29:58.420Z,963.47
2019-03-17T10:30:58.413Z,963.38
2019-03-17T10:31:58.487Z,963.33
2019-03-17T10:32:58.400Z,963.36
2019-03-17T10:33:58.401Z,963.46
2019-03-17T10:34:58.387Z,963.40
2019-03-17T10:35:58.380Z,963.36
2019-03-17T10:36:58.373Z,963.39
2019-03-17T10:37:58.364Z,963.35
2019-03-17T10:38:58.358Z,963.27
2019-03-17T10:39:58.351Z,963.24
2019-03-17T10:40:58.345Z,963.28
2019-03-17T10:41:58.339Z,963.27
2019-03-17T10:42:58.356Z,963.25
2019-03-17T10:43:58.325Z,963.18
2019-03-17T10:44:58.319Z,963.16
2019-03-17T10:45:58.310Z,963.10
2019-03-17T10:46:58.305Z,963.11
2019-03-17T10:47:58.297Z,963.02
2019-03-17T10:48:58.292Z,963.01
2019-03-17T10:49:58.284Z,963.02
2019-03-17T10:50:58.279Z,963.12
2019-03-17T10:51:58.270Z,963.20
2019-03-17T10:52:58.263Z,963.16
2019-03-17T10:53:58.266Z,963.11
2019-03-17T10:54:58.251Z,962.90
2019-03-17T10:55:58.248Z,962.92
2019-03-17T10:56:58.237Z,963.04
2019-03-17T10:57:58.229Z,963.05
2019-03-17T10:58:58.225Z,962.90
2019-03-17T10:59:58.226Z,962.87
2019-03-17T11:00:58.212Z,962.89
2019-03-17T11:01:58.207Z,962.99
2019-03-17T11:02:58.196Z,962.86
2019-03-17T11:03:58.189Z,962.78
2019-03-17T11:04:58.183Z,962.82
2019-03-17T11:05:58.176Z,962.90
2019-03-17T11:06:58.170Z,962.79
2019-03-17T11:07:58.167Z,962.82
2019-03-17T11:08:58.155Z,962.90
2019-03-17T11:09:58.147Z,962.81
2019-03-17T11:10:58.140Z,962.79
2019-03-17T11:11:58.155Z,963.11
2019-03-17T11:12:58.128Z,963.11
2019-03-17T11:13:58.125Z,962.88
2019-03-17T11:14:58.114Z,962.60
2019-03-17T11:15:58.107Z,962.65
2019-03-17T11:16:58.125Z,962.68
2019-03-17T11:17:58.090Z,962.55
2019-03-17T11:18:58.084Z,962.70
2019-03-17T11:19:58.076Z,962.93
2019-03-17T11:20:58.072Z,963.00
2019-03-17T11:21:58.062Z,963.05
2019-03-17T11:22:58.055Z,963.07
2019-03-17T11:23:58.049Z,962.93
2019-03-17T11:24:58.046Z,962.95
2019-03-17T11:25:58.033Z,962.96
2019-03-17T11:26:58.027Z,962.94
2019-03-17T11:27:58.020Z,962.93
2019-03-17T11:28:58.016Z,962.96
2019-03-17T11:29:58.007Z,963.02
2019-03-17T11:30:58.000Z,962.98
2019-03-17T11:31:57.993Z,963.01
2019-03-17T11:32:57.986Z,963.03
2019-03-17T11:33:57.979Z,963.04
2019-03-17T11:34:57.973Z,962.99
2019-03-17T11:35:57.970Z,962.88
2019-03-17T11:36:57.962Z,962.82
2019-03-17T11:37:57.955Z,962.79
2019-03-17T11:38:57.948Z,962.83
2019-03-17T11:39:57.941Z,962.85
2019-03-17T11:40:57.936Z,962.88
2019-03-17T11:41:57.926Z,962.81
2019-03-17T11:42:57.920Z,962.81
2019-03-17T11:43:57.913Z,962.79
2019-03-17T11:44:57.913Z,962.78
2019-03-17T11:45:57.899Z,962.83
2019-03-17T11:46:57.894Z,962.88
2019-03-17T11:47:57.887Z,962.93
2019-03-17T11:48:57.881Z,962.80
2019-03-17T11:49:57.874Z,962.76
2019-03-17T11:50:57.891Z,962.75
2019-03-17T11:51:57.860Z,962.82
2019-03-17T11:52:57.856Z,962.79
2019-03-17T11:53:57.852Z,962.71
2019-03-17T11:54:57.842Z,962.65
2019-03-17T11:55:57.835Z,962.59
2019-03-17T11:56:57.830Z,962.62
2019-03-17T11:57:57.824Z,962.62
2019-03-17T11:58:57.817Z,962.55
2019-03-17T11:59:57.810Z,962.59
2019-03-17T12:00:57.805Z,962.59
2019-03-17T12:01:57.799Z,962.62
2019-03-17T12:02:57.794Z,962.61
2019-03-17T12:03:57.785Z,962.64
2019-03-17T12:04:57.779Z,962.66
2019-03-17T12:05:57.773Z,962.59
2019-03-17T12:06:57.767Z,962.60
2019-03-17T12:07:57.763Z,962.63
2019-03-17T12:08:57.762Z,962.59
2019-03-17T12:09:57.750Z,962.64
2019-03-17T12:10:57.742Z,962.61
2019-03-17T12:11:57.735Z,962.62
2019-03-17T12:12:57.729Z,962.68
2019-03-17T12:13:57.725Z,962.63
2019-03-17T12:14:57.718Z,962.61
2019-03-17T12:15:57.713Z,962.64
2019-03-17T12:16:57.706Z,962.64
2019-03-17T12:17:57.699Z,962.63
2019-03-17T12:18:57.692Z,962.59
2019-03-17T12:19:57.695Z,962.60
2019-03-17T12:20:57.682Z,962.58
2019-03-17T12:22:08.403Z,962.55
2019-03-17T12:22:57.669Z,962.58
2019-03-17T12:23:57.662Z,962.60
2019-03-17T12:24:57.659Z,962.60
2019-03-17T12:25:57.650Z,962.58
2019-03-17T12:26:57.646Z,962.58
2019-03-17T12:27:57.639Z,962.57